createdAt,value
2023-01-03T00:00:50.533Z,98693.01
2023-01-03T00:03:17.412Z,98694.83
2023-01-03T00:05:45.117Z,98696.66
2023-01-03T00:08:12.119Z,98699.98
2023-01-03T00:10:39.046Z,98693.13
2023-01-03T00:13:05.855Z,98694.48
2023-01-03T00:15:36.128Z,98698.27
2023-01-03T00:18:03.267Z,98703.98
2023-01-03T00:20:30.094Z,98710.61
2023-01-03T00:22:57.059Z,98710.59
2023-01-03T00:25:23.849Z,98713.79
2023-01-03T00:27:50.692Z,98713.76
2023-01-03T00:30:17.584Z,98712.41
2023-01-03T00:32:44.437Z,98712.94
2023-01-03T00:35:13.678Z,98707.95
2023-01-03T00:37:40.551Z,98712.12
2023-01-03T00:40:07.879Z,98714.05
2023-01-03T00:42:54.733Z,98716.14
2023-01-03T00:45:24.388Z,98721.16
2023-01-03T00:47:52.513Z,98726.66
2023-01-03T00:50:19.457Z,98726.80
2023-01-03T00:52:46.304Z,98725.65
2023-01-03T00:55:13.144Z,98727.23
2023-01-03T00:57:39.931Z,98722.96
2023-01-03T01:00:07.347Z,98720.30
2023-01-03T01:02:34.384Z,98722.70
2023-01-03T01:05:01.399Z,98719.52
2023-01-03T01:07:30.672Z,98719.42
2023-01-03T01:09:57.542Z,98723.73
2023-01-03T01:12:24.443Z,98720.33
2023-01-03T01:14:51.417Z,98722.77
2023-01-03T01:17:22.568Z,98727.13
2023-01-03T01:19:50.040Z,98725.89
2023-01-03T01:22:16.978Z,98725.92
2023-01-03T01:24:43.865Z,98729.41
2023-01-03T01:27:10.744Z,98732.16
2023-01-03T01:29:38.004Z,98730.58
2023-01-03T01:32:05.481Z,98725.19
2023-01-03T01:34:32.443Z,98717.24
2023-01-03T01:36:59.363Z,98721.71
2023-01-03T01:39:27.363Z,98718.70
2023-01-03T01:42:20.810Z,98714.60
2023-01-03T01:45:01.984Z,98718.57
2023-01-03T01:47:41.065Z,98718.55
2023-01-03T01:50:20.212Z,98725.84
2023-01-03T01:52:56.270Z,98719.71
2023-01-03T01:55:26.239Z,98721.11
2023-01-03T01:57:53.167Z,98716.77
2023-01-03T02:00:20.314Z,98715.39
2023-01-03T02:02:48.417Z,98712.06
2023-01-03T02:05:15.563Z,98712.50
2023-01-03T02:07:44.722Z,98718.25
2023-01-03T02:10:11.617Z,98725.17
2023-01-03T02:13:00.073Z,98719.40
2023-01-03T02:15:42.314Z,98719.27
2023-01-03T02:18:21.433Z,98721.19
2023-01-03T02:21:25.798Z,98720.45
2023-01-03T02:24:16.196Z,98716.34
2023-01-03T02:27:03.163Z,98715.80
2023-01-03T02:30:07.625Z,98720.55
2023-01-03T02:32:40.506Z,98727.40
2023-01-03T02:35:42.982Z,98726.39
2023-01-03T02:38:12.066Z,98728.64
2023-01-03T02:40:45.339Z,98727.42
2023-01-03T02:43:18.594Z,98729.56
2023-01-03T02:45:48.765Z,98733.32
2023-01-03T02:48:34.627Z,98736.98
2023-01-03T02:51:04.181Z,98736.62
2023-01-03T02:53:33.407Z,98740.36
2023-01-03T02:56:02.748Z,98741.05
2023-01-03T02:58:30.728Z,98738.12
2023-01-03T03:00:59.984Z,98736.64
2023-01-03T03:03:28.168Z,98741.16
2023-01-03T03:06:01.531Z,98744.73
2023-01-03T03:08:28.450Z,98748.58
2023-01-03T03:11:15.487Z,98752.68
2023-01-03T03:13:54.975Z,98756.08
2023-01-03T03:17:01.939Z,98752.89
2023-01-03T03:19:49.432Z,98756.58
2023-01-03T03:22:45.121Z,98762.59
2023-01-03T03:25:15.575Z,98764.27
2023-01-03T03:28:02.151Z,98764.44
2023-01-03T03:30:29.077Z,98766.65
2023-01-03T03:32:59.394Z,98771.61
2023-01-03T03:35:26.324Z,98775.30
2023-01-03T03:37:55.019Z,98776.73
2023-01-03T03:40:42.080Z,98777.88
2023-01-03T03:43:32.550Z,98790.08
2023-01-03T03:46:17.796Z,98790.04
2023-01-03T03:49:06.828Z,98787.29
2023-01-03T03:51:34.934Z,98790.26
2023-01-03T03:54:03.091Z,98783.95
2023-01-03T03:56:31.991Z,98786.42
2023-01-03T03:59:02.856Z,98785.48
2023-01-03T04:01:29.812Z,98784.35
2023-01-03T04:03:57.920Z,98790.24
2023-01-03T04:06:26.953Z,98783.02
2023-01-03T04:08:53.787Z,98788.17
2023-01-03T04:11:20.729Z,98793.02
2023-01-03T04:13:47.498Z,98801.27
2023-01-03T04:16:14.650Z,98806.35
2023-01-03T04:18:41.501Z,98808.82
2023-01-03T04:21:08.367Z,98809.55
2023-01-03T04:23:35.217Z,98810.54
2023-01-03T04:26:02.049Z,98816.20
2023-01-03T04:28:28.929Z,98818.29
2023-01-03T04:30:55.960Z,98824.12
2023-01-03T04:33:22.890Z,98824.70
2023-01-03T04:35:51.021Z,98821.84
2023-01-03T04:38:18.049Z,98824.92
2023-01-03T04:40:45.090Z,98824.46
2023-01-03T04:43:30.483Z,98825.17
2023-01-03T04:45:57.359Z,98824.15
2023-01-03T04:48:24.272Z,98827.89
2023-01-03T04:50:55.175Z,98826.60
2023-01-03T04:53:22.831Z,98832.46
2023-01-03T04:55:50.340Z,98834.57
2023-01-03T04:58:17.365Z,98838.52
2023-01-03T05:00:44.286Z,98837.43
2023-01-03T05:03:11.246Z,98841.08
2023-01-03T05:05:38.377Z,98841.16
2023-01-03T05:08:06.443Z,98837.66
2023-01-03T05:10:33.429Z,98838.41
2023-01-03T05:13:00.402Z,98842.64
2023-01-03T05:15:28.114Z,98846.33
2023-01-03T05:17:55.055Z,98845.02
2023-01-03T05:20:41.169Z,98849.13
2023-01-03T05:23:34.039Z,98846.69
2023-01-03T05:26:02.813Z,98846.74
2023-01-03T05:28:29.667Z,98849.92
2023-01-03T05:30:58.432Z,98852.31
2023-01-03T05:33:25.742Z,98857.13
2023-01-03T05:35:52.563Z,98861.11
2023-01-03T05:38:19.867Z,98861.81
2023-01-03T05:40:46.731Z,98867.06
2023-01-03T05:43:13.592Z,98867.53
2023-01-03T05:45:40.540Z,98868.08
2023-01-03T05:48:07.909Z,98872.01
2023-01-03T05:50:34.960Z,98875.12
2023-01-03T05:53:01.901Z,98877.69
2023-01-03T05:55:28.757Z,98878.70
2023-01-03T05:57:55.697Z,98890.33
2023-01-03T06:00:22.797Z,98892.55
2023-01-03T06:02:49.673Z,98894.21
2023-01-03T06:05:16.719Z,98897.91
2023-01-03T06:07:43.713Z,98905.76
2023-01-03T06:10:10.670Z,98906.05
2023-01-03T06:12:37.555Z,98910.63
2023-01-03T06:15:05.015Z,98911.02
2023-01-03T06:17:50.414Z,98912.91
2023-01-03T06:20:17.319Z,98924.41
2023-01-03T06:22:44.117Z,98925.59
2023-01-03T06:25:10.980Z,98924.29
2023-01-03T06:27:37.877Z,98931.55
2023-01-03T06:30:05.342Z,98935.51
2023-01-03T06:32:32.205Z,98932.88
2023-01-03T06:34:59.233Z,98937.02
2023-01-03T06:37:26.072Z,98940.34
2023-01-03T06:39:52.886Z,98939.01
2023-01-03T06:42:38.502Z,98938.73
2023-01-03T06:45:24.393Z,98945.27
2023-01-03T06:48:09.877Z,98950.31
2023-01-03T06:50:57.895Z,98958.48
2023-01-03T06:53:24.854Z,98962.61
2023-01-03T06:55:56.690Z,98963.61
2023-01-03T06:58:24.772Z,98966.92
2023-01-03T07:00:51.686Z,98964.72
2023-01-03T07:03:18.456Z,98971.14
2023-01-03T07:05:45.363Z,98976.84
2023-01-03T07:08:12.255Z,98980.40
2023-01-03T07:10:39.147Z,98977.44
2023-01-03T07:13:24.959Z,98987.25
2023-01-03T07:15:52.235Z,98992.70
2023-01-03T07:18:19.390Z,98995.90
2023-01-03T07:20:46.383Z,98994.10
2023-01-03T07:23:13.563Z,98994.67
2023-01-03T07:27:34.356Z,98988.63
2023-01-03T07:30:01.450Z,98995.69
2023-01-03T07:32:28.488Z,98990.52
2023-01-03T07:34:55.533Z,98990.64
2023-01-03T07:37:22.403Z,98989.46
2023-01-03T07:39:49.360Z,98994.01
2023-01-03T07:42:35.104Z,98995.63
2023-01-03T07:45:02.048Z,98999.52
2023-01-03T07:47:29.230Z,98999.02
2023-01-03T07:49:56.772Z,98999.60
2023-01-03T07:52:23.740Z,99004.81
2023-01-03T07:54:50.648Z,98999.27
2023-01-03T07:57:17.617Z,99002.98
2023-01-03T07:59:44.847Z,99005.73
2023-01-03T08:02:12.087Z,99003.67
2023-01-03T08:04:42.474Z,99005.14
2023-01-03T08:07:12.447Z,99006.27
2023-01-03T08:09:58.239Z,99008.69
2023-01-03T08:12:46.805Z,99013.54
2023-01-03T08:15:17.311Z,99019.21
2023-01-03T08:17:47.537Z,99020.74
2023-01-03T08:20:14.881Z,99018.65
2023-01-03T08:22:41.766Z,99019.48
2023-01-03T08:25:09.601Z,99016.85
2023-01-03T08:27:36.529Z,99017.53
2023-01-03T08:30:06.403Z,99018.14
2023-01-03T08:32:37.794Z,99021.13
2023-01-03T08:35:06.173Z,99021.31
2023-01-03T08:37:33.224Z,99026.60
2023-01-03T08:40:01.664Z,99025.85
2023-01-03T08:42:28.649Z,99024.02
2023-01-03T08:52:40.623Z,99028.27
2023-01-03T08:55:08.535Z,99027.77
2023-01-03T08:57:35.506Z,99032.20
2023-01-03T09:00:06.340Z,99030.19
2023-01-03T09:02:43.362Z,99031.44
2023-01-03T09:05:10.975Z,99028.75
2023-01-03T09:07:38.058Z,99031.08
2023-01-03T09:10:05.786Z,99029.88
2023-01-03T09:12:32.844Z,99023.41
2023-01-03T09:14:59.779Z,99022.24
2023-01-03T09:17:26.621Z,99016.81
2023-01-03T09:19:53.625Z,99012.64
2023-01-03T09:22:20.531Z,99014.60
2023-01-03T09:24:47.564Z,99011.39
2023-01-03T09:27:14.843Z,99010.13
2023-01-03T09:29:41.861Z,99011.69
2023-01-03T09:32:08.883Z,99011.76
2023-01-03T09:34:38.537Z,99005.08
2023-01-03T09:37:05.764Z,99008.42
2023-01-03T09:39:32.721Z,99004.93
2023-01-03T09:42:19.549Z,99002.02
2023-01-03T09:44:47.178Z,98997.08
2023-01-03T09:47:19.145Z,98996.08
2023-01-03T09:50:11.688Z,98987.56
2023-01-03T09:52:51.941Z,98986.04
2023-01-03T09:56:04.870Z,98983.85
2023-01-03T09:58:53.417Z,98980.80
2023-01-03T10:01:49.115Z,98976.91
2023-01-03T10:04:47.748Z,98974.17
2023-01-03T10:07:34.917Z,98973.13
2023-01-03T10:10:18.940Z,98973.96
2023-01-03T10:12:53.932Z,98975.50
2023-01-03T10:15:39.297Z,98973.76
2023-01-03T10:18:13.580Z,98974.09
2023-01-03T10:20:49.465Z,98971.75
2023-01-03T10:23:16.412Z,98970.26
2023-01-03T10:25:44.618Z,98970.79
2023-01-03T10:28:18.595Z,98973.57
2023-01-03T10:31:07.818Z,98972.06
2023-01-03T10:33:50.065Z,98975.17
2023-01-03T10:36:18.349Z,98972.52
2023-01-03T10:38:52.407Z,98971.05
2023-01-03T10:41:41.731Z,98970.35
2023-01-03T10:44:26.521Z,98971.88
2023-01-03T10:46:55.146Z,98978.84
2023-01-03T10:49:29.552Z,98978.47
2023-01-03T10:51:58.488Z,98980.59
2023-01-03T10:54:53.072Z,98976.46
2023-01-03T10:57:37.631Z,98971.75
2023-01-03T11:00:24.446Z,98969.42
2023-01-03T11:02:51.987Z,98966.85
2023-01-03T11:05:23.927Z,98968.19
2023-01-03T11:08:00.478Z,98965.41
2023-01-03T11:10:34.376Z,98962.64
2023-01-03T11:13:01.252Z,98965.35
2023-01-03T11:15:37.849Z,98959.85
2023-01-03T11:18:16.065Z,98964.95
2023-01-03T11:21:05.029Z,98965.04
2023-01-03T11:23:47.637Z,98962.45
2023-01-03T11:26:29.418Z,98967.52
2023-01-03T11:29:05.525Z,98963.98
2023-01-03T11:31:55.828Z,98961.79
2023-01-03T11:35:21.977Z,98964.66
2023-01-03T11:37:55.423Z,98968.00
2023-01-03T11:40:31.591Z,98971.09
2023-01-03T11:43:17.574Z,98967.20
2023-01-03T11:46:10.578Z,98971.33
2023-01-03T11:48:43.884Z,98976.10
2023-01-03T11:51:33.630Z,98982.61
2023-01-03T11:54:12.021Z,98979.14
2023-01-03T11:56:43.597Z,98982.33
2023-01-03T11:59:36.308Z,98983.58
2023-01-03T12:02:37.805Z,98984.08
2023-01-03T12:05:33.175Z,98985.22
2023-01-03T12:08:26.439Z,98986.78
2023-01-03T12:11:19.240Z,98986.68
2023-01-03T12:13:56.467Z,98986.44
2023-01-03T12:16:51.272Z,98988.05
2023-01-03T12:19:36.428Z,98985.16
2023-01-03T12:22:15.890Z,98990.09
2023-01-03T12:25:19.032Z,98991.44
2023-01-03T12:28:12.685Z,98992.42
2023-01-03T12:30:44.711Z,98993.87
2023-01-03T12:33:18.002Z,98997.10
2023-01-03T12:36:06.275Z,98995.52
2023-01-03T12:38:38.179Z,98993.64
2023-01-03T12:41:16.133Z,98989.53
2023-01-03T12:44:14.410Z,98994.33
2023-01-03T12:46:47.915Z,98995.94
2023-01-03T12:49:39.124Z,98999.14
2023-01-03T12:52:16.760Z,99002.16
2023-01-03T12:55:08.735Z,98998.44
2023-01-03T12:57:45.651Z,99003.69
2023-01-03T13:00:23.841Z,99003.13
2023-01-03T13:03:07.537Z,99006.63
2023-01-03T13:05:34.613Z,99008.08
2023-01-03T13:08:20.562Z,99004.21
2023-01-03T13:10:49.121Z,99014.58
2023-01-03T13:13:20.133Z,99016.98
2023-01-03T13:15:48.449Z,99018.42
2023-01-03T13:18:21.884Z,99018.73
2023-01-03T13:20:55.492Z,99018.69
2023-01-03T13:23:54.920Z,99019.84
2023-01-03T13:26:24.474Z,99031.81
2023-01-03T13:28:52.266Z,99038.17
2023-01-03T13:31:19.354Z,99044.98
2023-01-03T13:33:52.607Z,99048.27
2023-01-03T13:36:19.650Z,99046.71
2023-01-03T13:38:46.802Z,99051.66
2023-01-03T13:41:36.072Z,99054.55
2023-01-03T13:44:23.428Z,99057.37
2023-01-03T13:46:50.875Z,99060.06
2023-01-03T13:49:25.314Z,99058.51
2023-01-03T13:51:56.817Z,99063.54
2023-01-03T13:54:25.308Z,99068.89
2023-01-03T13:56:55.116Z,99073.88
2023-01-03T13:59:42.358Z,99074.59
2023-01-03T14:02:12.502Z,99070.58
2023-01-03T14:05:01.216Z,99074.30
2023-01-03T14:07:55.907Z,99075.23
2023-01-03T14:10:33.533Z,99079.00
2023-01-03T14:13:06.702Z,99081.95
2023-01-03T14:15:36.711Z,99087.34
2023-01-03T14:18:25.900Z,99088.52
2023-01-03T14:20:53.969Z,99088.76
2023-01-03T14:26:15.961Z,99087.73
2023-01-03T14:28:49.696Z,99092.48
2023-01-03T14:31:19.389Z,99096.31
2023-01-03T14:33:58.448Z,99101.67
2023-01-03T14:36:25.687Z,99107.32
2023-01-03T14:39:00.533Z,99112.54
2023-01-03T14:41:38.475Z,99115.40
2023-01-03T14:44:12.038Z,99123.14
2023-01-03T14:46:40.664Z,99121.70
2023-01-03T14:49:19.630Z,99124.72
2023-01-03T14:51:46.532Z,99126.38
2023-01-03T14:54:16.404Z,99126.42
2023-01-03T14:56:46.977Z,99129.00
2023-01-03T14:59:15.683Z,99135.96
2023-01-03T15:01:43.701Z,99138.86
2023-01-03T15:04:19.736Z,99140.77
2023-01-03T15:07:03.433Z,99144.84
2023-01-03T15:09:34.104Z,99142.94
2023-01-03T15:12:05.240Z,99146.65
2023-01-03T15:14:34.304Z,99143.33
2023-01-03T15:17:11.764Z,99142.71
2023-01-03T15:19:40.219Z,99143.21
2023-01-03T15:22:16.579Z,99146.33
2023-01-03T15:24:45.605Z,99148.86
2023-01-03T15:27:38.013Z,99148.00
2023-01-03T15:30:19.896Z,99148.70
2023-01-03T15:32:55.181Z,99150.93
2023-01-03T15:35:39.531Z,99159.48
2023-01-03T15:38:22.709Z,99164.65
2023-01-03T15:40:50.208Z,99163.89
2023-01-03T15:43:24.698Z,99162.02
2023-01-03T15:46:13.665Z,99164.98
2023-01-03T15:48:42.141Z,99165.27
2023-01-03T15:51:09.160Z,99168.88
2023-01-03T15:53:43.799Z,99169.33
2023-01-03T15:56:30.521Z,99170.54
2023-01-03T15:58:57.670Z,99171.88
2023-01-03T16:01:24.959Z,99177.03
2023-01-03T16:03:54.680Z,99174.05
2023-01-03T16:06:21.806Z,99175.45
2023-01-03T16:08:50.991Z,99177.98
2023-01-03T16:11:28.043Z,99180.45
2023-01-03T16:14:00.461Z,99179.04
2023-01-03T16:16:32.258Z,99186.59
2023-01-03T16:18:59.269Z,99187.20
2023-01-03T16:21:26.697Z,99183.98
2023-01-03T16:23:53.659Z,99181.64
2023-01-03T16:26:20.920Z,99185.06
2023-01-03T16:28:48.252Z,99187.31
2023-01-03T16:31:19.767Z,99182.58
2023-01-03T16:33:48.075Z,99187.19
2023-01-03T16:36:53.828Z,99186.68
2023-01-03T16:39:25.077Z,99190.42
2023-01-03T16:42:12.434Z,99191.11
2023-01-03T16:44:44.110Z,99194.29
2023-01-03T16:47:17.354Z,99197.98
2023-01-03T16:49:44.399Z,99197.59
2023-01-03T16:52:16.536Z,99196.95
2023-01-03T16:54:43.504Z,99202.13
2023-01-03T16:57:20.476Z,99205.25
2023-01-03T16:59:47.839Z,99206.27
2023-01-03T17:09:57.246Z,99215.44
2023-01-03T17:12:25.089Z,99218.45
2023-01-03T17:14:52.392Z,99219.27
2023-01-03T17:17:21.133Z,99218.95
2023-01-03T17:20:06.544Z,99223.81
2023-01-03T17:22:33.873Z,99227.41
2023-01-03T17:25:00.820Z,99225.86
2023-01-03T17:27:32.693Z,99226.47
2023-01-03T17:30:02.906Z,99221.94
2023-01-03T17:32:30.750Z,99221.67
2023-01-03T17:34:58.038Z,99222.48
2023-01-03T17:37:24.947Z,99223.88
2023-01-03T17:39:56.879Z,99222.92
2023-01-03T17:42:24.704Z,99224.17
2023-01-03T17:45:11.033Z,99223.33
2023-01-03T17:55:37.401Z,99225.20
2023-01-03T17:58:04.432Z,99228.51
2023-01-03T18:00:31.700Z,99233.23
2023-01-03T18:03:01.371Z,99235.96
2023-01-03T19:59:29.276Z,99262.40
2023-01-03T20:02:24.686Z,99261.33
2023-01-03T20:04:46.732Z,99259.95
2023-01-03T20:07:14.362Z,99256.80
2023-01-03T20:09:41.334Z,99259.75
2023-01-03T20:12:15.854Z,99256.77
2023-01-03T20:14:46.302Z,99261.70
2023-01-03T20:17:24.851Z,99265.77
2023-01-03T20:19:55.406Z,99270.81
2023-01-03T20:23:04.043Z,99271.46
2023-01-03T20:25:30.871Z,99273.38
2023-01-03T20:27:58.203Z,99273.75
2023-01-03T20:30:26.426Z,99272.52
2023-01-03T20:32:53.519Z,99271.61
2023-01-03T20:38:12.529Z,99273.61
2023-01-03T20:40:39.423Z,99280.83
2023-01-03T20:43:06.451Z,99280.16
2023-01-03T20:45:33.438Z,99281.02
2023-01-03T20:48:00.536Z,99281.61
2023-01-03T20:50:28.107Z,99283.63
2023-01-03T20:52:55.386Z,99281.09
2023-01-03T20:55:24.118Z,99281.67
2023-01-03T20:57:51.726Z,99278.67
2023-01-03T21:00:32.565Z,99278.87
2023-01-03T21:02:59.905Z,99275.64
2023-01-03T21:05:27.093Z,99270.61
2023-01-03T21:08:12.493Z,99272.91
2023-01-03T21:10:41.535Z,99273.20
2023-01-03T21:13:10.832Z,99276.02
2023-01-03T21:15:38.163Z,99277.33
2023-01-03T21:18:05.354Z,99280.09
2023-01-03T21:20:32.402Z,99280.71
2023-01-03T21:22:59.315Z,99278.63
2023-01-03T21:25:32.869Z,99279.30
2023-01-03T21:28:00.259Z,99280.98
2023-01-03T21:30:28.295Z,99283.95
2023-01-03T21:32:55.286Z,99285.65
2023-01-03T21:35:23.496Z,99289.53
2023-01-03T21:37:51.363Z,99291.37
2023-01-03T21:40:21.710Z,99292.95
2023-01-03T21:43:04.633Z,99298.21
2023-01-03T21:45:36.793Z,99297.66
2023-01-03T21:48:06.061Z,99296.75
2023-01-03T21:50:37.153Z,99293.88
2023-01-03T21:53:03.959Z,99291.92
2023-01-03T21:55:31.028Z,99291.95
2023-01-03T21:57:58.155Z,99296.87
2023-01-03T22:00:25.017Z,99294.69
2023-01-03T22:03:10.614Z,99295.40
2023-01-03T22:05:37.544Z,99292.05
2023-01-03T22:08:06.693Z,99294.20
2023-01-03T22:10:34.432Z,99293.67
2023-01-03T22:13:02.477Z,99295.50
2023-01-03T22:15:29.341Z,99293.98
2023-01-03T22:17:56.166Z,99294.61
2023-01-03T22:20:24.896Z,99293.87
2023-01-03T22:22:51.759Z,99295.91
2023-01-03T22:25:20.130Z,99297.34
2023-01-03T22:27:47.099Z,99297.90
2023-01-03T22:30:16.184Z,99292.14
2023-01-03T22:32:43.112Z,99292.98
2023-01-03T22:35:11.378Z,99292.17
2023-01-03T22:37:38.689Z,99296.35
2023-01-03T22:40:07.317Z,99298.65
2023-01-03T22:42:34.224Z,99299.98
2023-01-03T22:45:01.066Z,99302.36
2023-01-03T22:47:29.158Z,99306.41
2023-01-03T22:49:56.466Z,99313.48
2023-01-03T22:52:23.530Z,99316.18
2023-01-03T22:54:50.552Z,99317.30
2023-01-03T22:57:17.435Z,99314.27
2023-01-03T22:59:44.297Z,99314.48
2023-01-03T23:02:11.205Z,99314.70
2023-01-03T23:04:38.296Z,99319.29
2023-01-03T23:07:05.241Z,99319.77
2023-01-03T23:09:32.278Z,99315.34
2023-01-03T23:12:17.891Z,99310.81
2023-01-03T23:14:44.848Z,99310.02
2023-01-03T23:17:30.483Z,99309.41
2023-01-03T23:19:57.373Z,99314.83
2023-01-03T23:22:24.182Z,99317.66
2023-01-03T23:24:51.074Z,99322.47
2023-01-03T23:27:18.080Z,99317.10
2023-01-03T23:29:44.941Z,99317.73
2023-01-03T23:32:11.740Z,99323.68
2023-01-03T23:34:38.580Z,99322.41
2023-01-03T23:37:05.420Z,99324.40
2023-01-03T23:39:32.308Z,99321.64
2023-01-03T23:41:59.166Z,99315.19
2023-01-03T23:44:26.708Z,99320.89
2023-01-03T23:46:53.592Z,99318.30
2023-01-03T23:49:20.675Z,99322.41
2023-01-03T23:51:47.487Z,99320.34
2023-01-03T23:54:14.281Z,99320.87
2023-01-03T23:56:41.278Z,99316.11
2023-01-03T23:59:08.200Z,99315.08
